Time;durP1;ratioP1;P1;durP2;ratioP2;P2;SDS_P1;SDS_P2;PMS_P1;PMS_P2;Temp;Humidity;BMP_temperature;BMP_pressure;BME280_temperature;BME280_humidity;BME280_pressure;Samples;Min_cycle;Max_cycle;Signal;HPM_P1;HPM_P2
2022/09/01 00:01:17;;;;;;;0.45;0.45;;;;;;;;;;2057606;28;20031;-87
2022/09/01 00:02:36;;;;;;;1.48;0.75;;;;;;;;;;2067803;28;20034;-87
2022/09/01 00:04:01;;;;;;;0.80;0.60;;;;;;;;;;2060820;28;20022;-85
2022/09/01 00:05:21;;;;;;;1.38;0.65;;;;;;;;;;2057052;28;20563;-85
2022/09/01 00:06:41;;;;;;;0.32;0.32;;;;;;;;;;2062978;28;20033;-85
2022/09/01 00:08:00;;;;;;;1.33;0.65;;;;;;;;;;2060592;28;20141;-85
2022/09/01 00:09:20;;;;;;;0.47;0.43;;;;;;;;;;2057194;28;20122;-84
2022/09/01 00:10:40;;;;;;;0.60;0.60;;;;;;;;;;2059539;28;20030;-86
2022/09/01 00:12:00;;;;;;;0.85;0.50;;;;;;;;;;2057554;28;20026;-85
2022/09/01 00:13:19;;;;;;;0.55;0.52;;;;;;;;;;2059781;28;20061;-85
2022/09/01 00:14:39;;;;;;;0.80;0.60;;;;;;;;;;2056863;28;20038;-85
2022/09/01 00:16:02;;;;;;;0.60;0.60;;;;;;;;;;2057240;28;20035;-86
2022/09/01 00:17:22;;;;;;;2.70;0.82;;;;;;;;;;2058344;28;20034;-85
2022/09/01 00:18:44;;;;;;;0.68;0.52;;;;;;;;;;2065673;28;20057;-85
2022/09/01 00:20:04;;;;;;;0.80;0.55;;;;;;;;;;2058769;28;20062;-85
2022/09/01 00:21:26;;;;;;;0.88;0.50;;;;;;;;;;2061291;28;20512;-85
2022/09/01 00:22:44;;;;;;;0.93;0.50;;;;;;;;;;2062979;28;20030;-85
2022/09/01 00:24:03;;;;;;;0.60;0.32;;;;;;;;;;2067918;28;20034;-85
2022/09/01 00:25:23;;;;;;;0.85;0.60;;;;;;;;;;2057205;28;20038;-85
2022/09/01 00:26:44;;;;;;;1.10;0.50;;;;;;;;;;2062210;28;20489;-86
2022/09/01 00:28:03;;;;;;;0.73;0.52;;;;;;;;;;2046201;29;20035;-88
2022/09/01 00:29:23;;;;;;;1.40;0.68;;;;;;;;;;2061991;28;20054;-85
2022/09/01 00:30:42;;;;;;;1.45;0.68;;;;;;;;;;2066551;28;20157;-86
2022/09/01 00:32:02;;;;;;;0.85;0.85;;;;;;;;;;2052671;28;20027;-87
2022/09/01 00:33:24;;;;;;;0.40;0.40;;;;;;;;;;2057130;28;20023;-87
2022/09/01 00:34:43;;;;;;;0.70;0.70;;;;;;;;;;2064049;28;20034;-86
2022/09/01 00:36:02;;;;;;;4.22;0.85;;;;;;;;;;2068850;28;20031;-86
2022/09/01 00:37:23;;;;;;;2.17;0.70;;;;;;;;;;2061907;28;20030;-87
2022/09/01 00:38:42;;;;;;;1.88;1.00;;;;;;;;;;2061649;28;20030;-86
2022/09/01 00:40:03;;;;;;;1.42;0.80;;;;;;;;;;2066045;28;20022;-85
2022/09/01 00:41:25;;;;;;;1.80;0.80;;;;;;;;;;2057077;28;20042;-87
2022/09/01 00:42:47;;;;;;;0.82;0.70;;;;;;;;;;2056764;28;20069;-87
2022/09/01 00:44:10;;;;;;;0.60;0.45;;;;;;;;;;2064102;28;20061;-87
2022/09/01 00:45:29;;;;;;;2.08;0.77;;;;;;;;;;2058729;28;20038;-87
2022/09/01 00:46:50;;;;;;;0.60;0.60;;;;;;;;;;2065302;28;20053;-88
2022/09/01 00:48:09;;;;;;;0.70;0.68;;;;;;;;;;2058189;28;20023;-88
2022/09/01 00:49:29;;;;;;;2.00;0.57;;;;;;;;;;2055212;28;20113;-86
2022/09/01 00:50:48;;;;;;;1.88;0.80;;;;;;;;;;2056516;28;20030;-87
2022/09/01 00:52:07;;;;;;;1.08;0.65;;;;;;;;;;2058871;28;20034;-86
2022/09/01 00:53:26;;;;;;;1.13;0.63;;;;;;;;;;2061264;28;20022;-87
2022/09/01 00:54:49;;;;;;;1.48;0.70;;;;;;;;;;2059004;28;20027;-87
2022/09/01 00:56:09;;;;;;;0.93;0.75;;;;;;;;;;2055011;28;20042;-87
2022/09/01 00:57:28;;;;;;;1.25;0.80;;;;;;;;;;2061275;28;20027;-86
2022/09/01 00:58:48;;;;;;;0.82;0.80;;;;;;;;;;2068745;28;20049;-86
2022/09/01 01:00:13;;;;;;;2.15;0.70;;;;;;;;;;2060337;28;20027;-87
2022/09/01 01:01:35;;;;;;;2.47;0.70;;;;;;;;;;2065873;28;20459;-86
2022/09/01 01:02:55;;;;;;;1.30;0.82;;;;;;;;;;2055410;28;20038;-86
2022/09/01 01:04:14;;;;;;;0.70;0.63;;;;;;;;;;2063743;28;20492;-85
2022/09/01 01:05:37;;;;;;;1.88;0.80;;;;;;;;;;2058897;28;20043;-86
2022/09/01 01:07:00;;;;;;;1.85;0.80;;;;;;;;;;2065105;28;20027;-86
2022/09/01 01:08:48;;;;;;;2.05;0.63;;;;;;;;;;2058477;28;20034;-86
2022/09/01 01:10:02;;;;;;;1.10;1.00;;;;;;;;;;2064657;28;20125;-86
2022/09/01 01:11:23;;;;;;;1.20;0.68;;;;;;;;;;2059783;28;20026;-85
2022/09/01 01:12:44;;;;;;;0.93;0.75;;;;;;;;;;2058109;28;20464;-85
2022/09/01 01:14:10;;;;;;;2.28;0.98;;;;;;;;;;2060674;28;20038;-85
2022/09/01 01:15:30;;;;;;;0.60;0.40;;;;;;;;;;2058678;28;20591;-87
2022/09/01 01:16:50;;;;;;;1.95;0.80;;;;;;;;;;2057887;28;20503;-86
2022/09/01 01:18:13;;;;;;;1.75;1.38;;;;;;;;;;2059094;28;20500;-86
2022/09/01 01:23:01;;;;;;;1.88;1.00;;;;;;;;;;2069212;28;20069;-87
2022/09/01 01:24:31;;;;;;;1.33;0.98;;;;;;;;;;2060720;28;20038;-86
2022/09/01 01:25:52;;;;;;;1.70;0.90;;;;;;;;;;2067322;28;20030;-87
2022/09/01 01:27:11;;;;;;;1.60;0.80;;;;;;;;;;2060677;28;20058;-86
2022/09/01 01:28:31;;;;;;;2.20;1.20;;;;;;;;;;2059776;28;20023;-87
2022/09/01 01:29:52;;;;;;;1.77;1.08;;;;;;;;;;2061740;28;20021;-86
2022/09/01 01:31:12;;;;;;;2.03;0.77;;;;;;;;;;2057921;28;20465;-86
2022/09/01 01:32:32;;;;;;;1.38;0.93;;;;;;;;;;2062644;28;20019;-85
2022/09/01 01:33:52;;;;;;;2.22;1.17;;;;;;;;;;2058361;28;20145;-86
2022/09/01 01:35:13;;;;;;;1.52;1.02;;;;;;;;;;2057686;28;20027;-86
2022/09/01 01:36:35;;;;;;;1.25;0.80;;;;;;;;;;2065505;28;20101;-87
2022/09/01 01:37:54;;;;;;;3.85;1.00;;;;;;;;;;2061569;28;20053;-86
2022/09/01 01:39:16;;;;;;;2.58;1.00;;;;;;;;;;2067103;28;20025;-86
2022/09/01 01:40:37;;;;;;;1.08;0.90;;;;;;;;;;2061718;28;20035;-86
2022/09/01 01:41:57;;;;;;;1.10;0.80;;;;;;;;;;2064034;28;20061;-86
2022/09/01 01:43:20;;;;;;;1.75;0.90;;;;;;;;;;2069457;28;20033;-85
2022/09/01 01:44:39;;;;;;;4.72;0.95;;;;;;;;;;2063044;28;20034;-86
2022/09/01 01:46:01;;;;;;;0.95;0.73;;;;;;;;;;2065058;28;20109;-85
2022/09/01 01:47:20;;;;;;;2.80;0.80;;;;;;;;;;2066355;28;20026;-86
2022/09/01 01:48:40;;;;;;;1.08;0.88;;;;;;;;;;2062140;28;20031;-86
2022/09/01 01:49:59;;;;;;;1.40;0.88;;;;;;;;;;2055639;28;20455;-87
2022/09/01 01:51:20;;;;;;;1.23;0.73;;;;;;;;;;2067504;28;20034;-86
2022/09/01 01:52:40;;;;;;;2.47;0.90;;;;;;;;;;2056461;28;20104;-86
2022/09/01 01:54:04;;;;;;;1.35;0.80;;;;;;;;;;2064361;28;20022;-86
2022/09/01 01:55:27;;;;;;;2.50;1.27;;;;;;;;;;2061117;28;20026;-86
2022/09/01 01:56:46;;;;;;;1.20;0.90;;;;;;;;;;2059399;28;20027;-86
2022/09/01 01:58:10;;;;;;;1.98;0.85;;;;;;;;;;2066707;28;20026;-86
2022/09/01 01:59:32;;;;;;;1.77;1.00;;;;;;;;;;2061935;28;20038;-85
2022/09/01 02:00:53;;;;;;;5.53;0.90;;;;;;;;;;2057834;28;20022;-85
2022/09/01 02:02:12;;;;;;;2.38;1.02;;;;;;;;;;2066672;28;20387;-85
2022/09/01 02:03:37;;;;;;;0.93;0.85;;;;;;;;;;2057778;28;20023;-85
2022/09/01 02:04:56;;;;;;;2.47;0.90;;;;;;;;;;2056882;28;20027;-84
2022/09/01 02:06:19;;;;;;;1.13;1.02;;;;;;;;;;2055010;28;20721;-84
2022/09/01 02:07:42;;;;;;;4.57;1.00;;;;;;;;;;2059816;28;20030;-85
2022/09/01 02:09:03;;;;;;;1.13;0.70;;;;;;;;;;2064844;28;20017;-86
2022/09/01 02:10:23;;;;;;;1.35;0.82;;;;;;;;;;2070225;28;20109;-85
2022/09/01 02:11:44;;;;;;;0.95;0.88;;;;;;;;;;2066199;28;20455;-85
2022/09/01 02:13:06;;;;;;;0.82;0.82;;;;;;;;;;2061746;28;20034;-86
2022/09/01 02:14:25;;;;;;;1.63;0.73;;;;;;;;;;2056800;28;20114;-86
2022/09/01 02:15:46;;;;;;;0.68;0.68;;;;;;;;;;2052972;28;20030;-86
2022/09/01 02:17:06;;;;;;;0.88;0.80;;;;;;;;;;2063850;28;20034;-86
2022/09/01 02:18:35;;;;;;;2.33;0.77;;;;;;;;;;2065873;28;20022;-86
2022/09/01 02:19:56;;;;;;;3.45;0.73;;;;;;;;;;2068385;28;20034;-85
2022/09/01 02:21:19;;;;;;;0.93;0.60;;;;;;;;;;2057928;28;20463;-86
2022/09/01 02:22:38;;;;;;;1.20;0.65;;;;;;;;;;2058331;28;20050;-85
2022/09/01 02:24:01;;;;;;;1.08;0.70;;;;;;;;;;2062185;28;20030;-85
2022/09/01 02:25:22;;;;;;;0.63;0.60;;;;;;;;;;2061407;28;20018;-86
2022/09/01 02:26:44;;;;;;;2.15;0.90;;;;;;;;;;2061910;28;20592;-86
2022/09/01 02:28:08;;;;;;;1.10;1.00;;;;;;;;;;2059320;28;20019;-85
2022/09/01 02:29:28;;;;;;;2.47;0.70;;;;;;;;;;2064937;28;20030;-85
2022/09/01 02:30:52;;;;;;;0.60;0.57;;;;;;;;;;2060077;28;20127;-86
2022/09/01 02:32:11;;;;;;;3.00;0.90;;;;;;;;;;2066374;28;20018;-86
2022/09/01 02:33:30;;;;;;;1.92;0.80;;;;;;;;;;2058171;28;20113;-85
2022/09/01 02:34:52;;;;;;;2.30;0.80;;;;;;;;;;2060390;28;20030;-86
2022/09/01 02:36:13;;;;;;;1.65;0.85;;;;;;;;;;2061166;28;20031;-85
2022/09/01 02:37:32;;;;;;;0.52;0.52;;;;;;;;;;2063697;28;20493;-86
2022/09/01 02:38:52;;;;;;;1.27;0.50;;;;;;;;;;2060528;28;20475;-85
2022/09/01 02:40:11;;;;;;;0.98;0.70;;;;;;;;;;2062923;28;20022;-85
2022/09/01 02:41:33;;;;;;;4.38;0.47;;;;;;;;;;2066865;28;20031;-85
2022/09/01 02:42:54;;;;;;;0.75;0.52;;;;;;;;;;2061749;28;20034;-86
2022/09/01 02:44:13;;;;;;;2.25;0.68;;;;;;;;;;2063685;28;20030;-85
2022/09/01 02:45:33;;;;;;;0.80;0.52;;;;;;;;;;2061786;28;20020;-85
2022/09/01 02:46:52;;;;;;;0.50;0.50;;;;;;;;;;2057857;28;20386;-85
2022/09/01 02:48:11;;;;;;;1.85;0.60;;;;;;;;;;2059763;28;20031;-85
2022/09/01 02:49:30;;;;;;;1.08;0.70;;;;;;;;;;2059933;28;20034;-85
2022/09/01 02:50:49;;;;;;;0.50;0.50;;;;;;;;;;2059476;28;20060;-85
2022/09/01 02:52:09;;;;;;;0.73;0.70;;;;;;;;;;2061956;28;20031;-85
2022/09/01 02:53:28;;;;;;;0.60;0.60;;;;;;;;;;2063890;28;20046;-85
2022/09/01 02:54:49;;;;;;;0.95;0.65;;;;;;;;;;2063067;28;20022;-85
2022/09/01 02:56:13;;;;;;;0.50;0.50;;;;;;;;;;2057203;28;20035;-85
2022/09/01 02:57:33;;;;;;;1.83;0.57;;;;;;;;;;2061321;28;20069;-86
2022/09/01 02:58:52;;;;;;;0.75;0.52;;;;;;;;;;2064245;28;20038;-85
2022/09/01 03:00:19;;;;;;;0.50;0.50;;;;;;;;;;2067068;28;20034;-85
2022/09/01 03:01:38;;;;;;;2.10;0.63;;;;;;;;;;2061987;28;20062;-85
2022/09/01 03:02:59;;;;;;;1.52;0.45;;;;;;;;;;2058177;28;20030;-87
2022/09/01 03:04:18;;;;;;;0.50;0.50;;;;;;;;;;2064803;28;20039;-86
2022/09/01 03:05:38;;;;;;;2.15;0.50;;;;;;;;;;2061079;28;20035;-87
2022/09/01 03:06:57;;;;;;;0.50;0.50;;;;;;;;;;2065095;28;20030;-85
2022/09/01 03:08:16;;;;;;;1.00;0.52;;;;;;;;;;2064022;28;20026;-85
2022/09/01 03:09:35;;;;;;;0.65;0.60;;;;;;;;;;2056535;28;20455;-86
2022/09/01 03:10:55;;;;;;;1.25;0.40;;;;;;;;;;2056948;28;20058;-87
2022/09/01 03:12:14;;;;;;;1.17;0.60;;;;;;;;;;2059929;28;20022;-86
2022/09/01 03:13:33;;;;;;;0.60;0.50;;;;;;;;;;2059485;28;20039;-87
2022/09/01 03:14:52;;;;;;;0.88;0.35;;;;;;;;;;2059671;28;20411;-86
2022/09/01 03:16:11;;;;;;;1.35;0.35;;;;;;;;;;2062792;28;20022;-87
2022/09/01 03:17:30;;;;;;;1.05;0.45;;;;;;;;;;2062112;28;20038;-86
2022/09/01 03:18:50;;;;;;;1.33;0.60;;;;;;;;;;2066009;28;20034;-84
2022/09/01 03:20:09;;;;;;;1.67;0.38;;;;;;;;;;2063733;28;20027;-84
2022/09/01 03:21:30;;;;;;;2.67;0.50;;;;;;;;;;2065503;28;20435;-85
2022/09/01 03:22:50;;;;;;;0.50;0.50;;;;;;;;;;2061261;28;20050;-84
2022/09/01 03:24:11;;;;;;;0.70;0.60;;;;;;;;;;2058699;28;20030;-86
2022/09/01 03:25:31;;;;;;;0.60;0.60;;;;;;;;;;2064126;28;20085;-86
2022/09/01 03:26:50;;;;;;;0.50;0.50;;;;;;;;;;2061725;28;20035;-85
2022/09/01 03:28:11;;;;;;;0.43;0.43;;;;;;;;;;2058038;28;20113;-86
2022/09/01 03:29:31;;;;;;;0.90;0.50;;;;;;;;;;2060790;28;20015;-86
2022/09/01 03:30:51;;;;;;;0.45;0.40;;;;;;;;;;2058403;28;20091;-86
2022/09/01 03:32:10;;;;;;;0.57;0.55;;;;;;;;;;2063239;28;20019;-86
2022/09/01 03:33:29;;;;;;;0.57;0.57;;;;;;;;;;2057796;28;20039;-86
2022/09/01 03:34:50;;;;;;;1.08;0.80;;;;;;;;;;2068694;28;20030;-85
2022/09/01 03:36:17;;;;;;;1.23;0.50;;;;;;;;;;2060979;28;20512;-85
2022/09/01 03:37:38;;;;;;;0.50;0.50;;;;;;;;;;2063071;28;20031;-87
2022/09/01 03:38:57;;;;;;;0.85;0.50;;;;;;;;;;2066969;28;20026;-86
2022/09/01 03:40:17;;;;;;;0.70;0.70;;;;;;;;;;2062362;28;20524;-86
2022/09/01 03:41:36;;;;;;;1.00;0.60;;;;;;;;;;2058418;28;20034;-85
2022/09/01 03:42:55;;;;;;;2.25;0.50;;;;;;;;;;2066728;28;20089;-84
2022/09/01 03:44:15;;;;;;;0.52;0.52;;;;;;;;;;2061789;28;20043;-86
2022/09/01 03:45:37;;;;;;;0.95;0.50;;;;;;;;;;2065940;28;20469;-86
2022/09/01 03:46:57;;;;;;;2.58;0.60;;;;;;;;;;2061148;28;20042;-85
2022/09/01 03:48:19;;;;;;;0.50;0.50;;;;;;;;;;2055188;28;20031;-86
2022/09/01 03:49:38;;;;;;;0.57;0.50;;;;;;;;;;2057305;28;20027;-86
2022/09/01 03:51:01;;;;;;;2.67;0.68;;;;;;;;;;2069661;28;20030;-87
2022/09/01 03:52:28;;;;;;;1.85;0.50;;;;;;;;;;2063383;28;20034;-86
2022/09/01 03:53:53;;;;;;;0.43;0.38;;;;;;;;;;2058608;28;20031;-88
2022/09/01 03:55:12;;;;;;;3.13;0.47;;;;;;;;;;2064491;28;20058;-86
2022/09/01 03:56:32;;;;;;;0.50;0.50;;;;;;;;;;2062111;28;20543;-85
2022/09/01 03:57:56;;;;;;;1.73;0.45;;;;;;;;;;2065439;28;20022;-86
2022/09/01 03:59:18;;;;;;;0.88;0.68;;;;;;;;;;2063375;28;20026;-86
2022/09/01 04:00:39;;;;;;;1.30;0.60;;;;;;;;;;2063972;28;20061;-86
2022/09/01 04:01:59;;;;;;;1.90;0.63;;;;;;;;;;2060500;28;20051;-86
2022/09/01 04:03:21;;;;;;;0.35;0.35;;;;;;;;;;2066884;28;20416;-85
2022/09/01 04:04:41;;;;;;;0.60;0.60;;;;;;;;;;2062099;28;20035;-86
2022/09/01 04:06:01;;;;;;;1.58;0.52;;;;;;;;;;2068183;28;20511;-86
2022/09/01 04:07:20;;;;;;;0.65;0.65;;;;;;;;;;2060656;28;20050;-86
2022/09/01 04:08:39;;;;;;;2.17;0.73;;;;;;;;;;2058620;28;20023;-86
2022/09/01 04:09:58;;;;;;;0.68;0.50;;;;;;;;;;2058502;28;20106;-87
2022/09/01 04:11:22;;;;;;;0.82;0.50;;;;;;;;;;2067138;28;20061;-87
2022/09/01 04:12:41;;;;;;;1.33;0.70;;;;;;;;;;2061636;28;20023;-86
2022/09/01 04:14:00;;;;;;;0.68;0.68;;;;;;;;;;2063923;28;20022;-86
2022/09/01 04:15:19;;;;;;;1.67;0.50;;;;;;;;;;2062066;28;20026;-86
2022/09/01 04:18:19;;;;;;;0.63;0.60;;;;;;;;;;2069321;28;20026;-86
2022/09/01 04:19:38;;;;;;;3.10;0.73;;;;;;;;;;2059601;28;20034;-86
2022/09/01 04:20:58;;;;;;;2.33;0.60;;;;;;;;;;2058130;28;20046;-87
2022/09/01 04:22:17;;;;;;;1.48;0.65;;;;;;;;;;2063319;28;20620;-86
2022/09/01 04:23:36;;;;;;;3.67;0.60;;;;;;;;;;2062079;28;20034;-87
2022/09/01 04:25:07;;;;;;;2.92;0.70;;;;;;;;;;2059284;28;20113;-91
2022/09/01 04:26:30;;;;;;;0.60;0.50;;;;;;;;;;2068991;28;20029;-88
2022/09/01 04:27:55;;;;;;;1.90;0.75;;;;;;;;;;2058002;28;20022;-88
2022/09/01 04:29:25;;;;;;;1.73;0.60;;;;;;;;;;2057713;28;20453;-90
2022/09/01 04:30:47;;;;;;;1.58;0.60;;;;;;;;;;2069859;28;20026;-87
2022/09/01 04:32:11;;;;;;;0.85;0.50;;;;;;;;;;2061823;28;20487;-88
2022/09/01 04:33:38;;;;;;;1.05;0.60;;;;;;;;;;2068200;28;20031;-87
2022/09/01 04:34:58;;;;;;;0.43;0.43;;;;;;;;;;2067486;28;20519;-88
2022/09/01 04:36:19;;;;;;;2.22;0.68;;;;;;;;;;2070350;28;20034;-88
2022/09/01 04:37:38;;;;;;;1.75;0.52;;;;;;;;;;2069316;28;20030;-88
2022/09/01 04:38:59;;;;;;;0.77;0.65;;;;;;;;;;2059639;28;20118;-88
2022/09/01 04:40:22;;;;;;;0.57;0.57;;;;;;;;;;2060838;28;20027;-87
2022/09/01 04:41:46;;;;;;;0.90;0.77;;;;;;;;;;2059991;28;20030;-93
2022/09/01 04:43:06;;;;;;;0.88;0.60;;;;;;;;;;2067253;28;20038;-86
2022/09/01 04:44:25;;;;;;;2.58;0.70;;;;;;;;;;2062840;28;20030;-87
2022/09/01 04:45:45;;;;;;;0.75;0.73;;;;;;;;;;2067091;28;20395;-89
2022/09/01 04:47:09;;;;;;;0.77;0.70;;;;;;;;;;2066760;28;20519;-91
2022/09/01 04:48:35;;;;;;;1.02;0.70;;;;;;;;;;2059643;28;20998;-89
2022/09/01 04:49:57;;;;;;;1.55;0.60;;;;;;;;;;2064940;28;20030;-88
2022/09/01 04:51:19;;;;;;;2.63;0.55;;;;;;;;;;2061207;28;20031;-90
2022/09/01 04:52:40;;;;;;;0.70;0.60;;;;;;;;;;2064822;28;20090;-89
2022/09/01 04:54:01;;;;;;;2.53;0.70;;;;;;;;;;2065431;28;20027;-87
2022/09/01 04:55:23;;;;;;;4.60;1.13;;;;;;;;;;2058809;28;20034;-90
2022/09/01 04:56:43;;;;;;;0.75;0.60;;;;;;;;;;2058496;28;20023;-87
2022/09/01 04:58:03;;;;;;;2.92;0.65;;;;;;;;;;2058683;28;20030;-89
2022/09/01 04:59:23;;;;;;;1.30;0.70;;;;;;;;;;2064645;28;20034;-84
2022/09/01 05:00:44;;;;;;;4.18;0.63;;;;;;;;;;2063555;28;20110;-89
2022/09/01 05:02:08;;;;;;;1.67;0.43;;;;;;;;;;2066385;28;20030;-89
2022/09/01 05:03:30;;;;;;;2.65;0.88;;;;;;;;;;2060026;28;20026;-85
2022/09/01 05:04:50;;;;;;;0.90;0.47;;;;;;;;;;2059627;28;20034;-85
2022/09/01 05:06:17;;;;;;;2.80;0.57;;;;;;;;;;2060902;28;20018;-88
2022/09/01 05:07:36;;;;;;;2.35;0.47;;;;;;;;;;2066870;28;20105;-87
2022/09/01 05:08:56;;;;;;;2.33;0.63;;;;;;;;;;2068405;28;20491;-88
2022/09/01 05:10:17;;;;;;;0.73;0.50;;;;;;;;;;2062955;28;20035;-90
2022/09/01 05:11:37;;;;;;;1.77;0.73;;;;;;;;;;2057714;28;20058;-91
2022/09/01 05:13:00;;;;;;;2.10;0.50;;;;;;;;;;2059249;28;20067;-91
2022/09/01 05:14:29;;;;;;;1.52;1.08;;;;;;;;;;2064484;28;20106;-86
2022/09/01 05:16:00;;;;;;;1.83;0.50;;;;;;;;;;2065937;28;20482;-85
2022/09/01 05:17:20;;;;;;;1.35;0.90;;;;;;;;;;2056608;28;20047;-84
2022/09/01 05:18:49;;;;;;;2.15;0.50;;;;;;;;;;2066279;28;20037;-85
2022/09/01 05:20:10;;;;;;;2.90;0.70;;;;;;;;;;2070184;28;20491;-83
2022/09/01 05:21:29;;;;;;;0.90;0.85;;;;;;;;;;2061467;28;20149;-85
2022/09/01 05:22:49;;;;;;;0.65;0.50;;;;;;;;;;2050384;28;20051;-83
2022/09/01 05:24:09;;;;;;;1.77;0.73;;;;;;;;;;2058072;28;20035;-86
2022/09/01 05:25:28;;;;;;;2.13;0.80;;;;;;;;;;2058964;28;20026;-83
2022/09/01 05:26:51;;;;;;;2.08;0.60;;;;;;;;;;2055738;28;20038;-87
2022/09/01 05:28:11;;;;;;;0.73;0.73;;;;;;;;;;2056480;28;20023;-83
2022/09/01 05:29:30;;;;;;;0.63;0.57;;;;;;;;;;2060141;28;20508;-82
2022/09/01 05:30:52;;;;;;;3.08;0.70;;;;;;;;;;2056271;28;20085;-82
2022/09/01 05:32:12;;;;;;;3.47;1.05;;;;;;;;;;2058305;28;20035;-83
2022/09/01 05:33:35;;;;;;;1.75;1.05;;;;;;;;;;2056734;28;20034;-82
2022/09/01 05:34:55;;;;;;;2.70;0.90;;;;;;;;;;2057496;28;20098;-83
2022/09/01 05:36:16;;;;;;;0.93;0.70;;;;;;;;;;2058846;28;20026;-83
2022/09/01 05:37:40;;;;;;;1.20;0.70;;;;;;;;;;2062166;28;20023;-87
2022/09/01 05:39:00;;;;;;;3.00;0.80;;;;;;;;;;2065447;28;20034;-92
2022/09/01 05:40:20;;;;;;;1.35;0.73;;;;;;;;;;2061375;28;20043;-89
2022/09/01 05:41:42;;;;;;;1.70;0.50;;;;;;;;;;2063745;28;20018;-89
2022/09/01 05:43:01;;;;;;;0.68;0.68;;;;;;;;;;2059713;28;20035;-93
2022/09/01 05:44:33;;;;;;;1.45;0.60;;;;;;;;;;2063995;28;20038;-86
2022/09/01 05:45:54;;;;;;;1.65;0.70;;;;;;;;;;2059970;28;20535;-90
2022/09/01 05:47:15;;;;;;;5.30;1.10;;;;;;;;;;2056932;28;20027;-87
2022/09/01 05:48:38;;;;;;;2.08;0.90;;;;;;;;;;2059638;28;20392;-86
2022/09/01 05:50:00;;;;;;;6.35;0.77;;;;;;;;;;2063996;28;20026;-89
2022/09/01 05:51:25;;;;;;;2.75;0.90;;;;;;;;;;2064592;28;20034;-89
2022/09/01 05:52:46;;;;;;;2.10;0.82;;;;;;;;;;2059827;28;20023;-88
2022/09/01 05:54:08;;;;;;;1.65;0.52;;;;;;;;;;2061127;28;20395;-89
2022/09/01 05:55:27;;;;;;;1.08;0.60;;;;;;;;;;2063735;28;20022;-88
2022/09/01 05:56:52;;;;;;;2.83;0.80;;;;;;;;;;2060188;28;20031;-87
2022/09/01 05:58:13;;;;;;;1.17;1.00;;;;;;;;;;2064053;28;20030;-88
2022/09/01 05:59:32;;;;;;;5.00;0.90;;;;;;;;;;2065128;28;20023;-88
2022/09/01 06:00:54;;;;;;;3.80;1.00;;;;;;;;;;2062658;28;20023;-89
2022/09/01 06:02:14;;;;;;;2.78;0.93;;;;;;;;;;2062379;28;20023;-88
2022/09/01 06:03:34;;;;;;;2.17;0.50;;;;;;;;;;2064187;28;20026;-88
2022/09/01 06:04:55;;;;;;;2.45;0.70;;;;;;;;;;2057804;28;20077;-88
2022/09/01 06:06:15;;;;;;;3.92;0.70;;;;;;;;;;2057183;28;20113;-88
2022/09/01 06:07:35;;;;;;;3.80;0.68;;;;;;;;;;2055343;28;20023;-88
2022/09/01 06:08:58;;;;;;;3.53;0.80;;;;;;;;;;2068316;28;20029;-88
2022/09/01 06:10:20;;;;;;;1.13;0.70;;;;;;;;;;2063353;28;20045;-88
2022/09/01 06:11:41;;;;;;;3.25;0.70;;;;;;;;;;2069882;28;20089;-87
2022/09/01 06:13:02;;;;;;;3.42;0.70;;;;;;;;;;2060629;28;20038;-87
2022/09/01 06:14:23;;;;;;;2.20;0.90;;;;;;;;;;2067899;28;20027;-87
2022/09/01 06:15:46;;;;;;;5.50;0.93;;;;;;;;;;2057047;28;20039;-88
2022/09/01 06:17:08;;;;;;;1.98;0.73;;;;;;;;;;2059680;28;20006;-88
2022/09/01 06:18:27;;;;;;;4.03;0.70;;;;;;;;;;2056766;28;20030;-91
2022/09/01 06:19:47;;;;;;;2.00;0.98;;;;;;;;;;2062230;28;20055;-88
2022/09/01 06:21:07;;;;;;;2.35;0.88;;;;;;;;;;2060236;28;20062;-84
2022/09/01 06:22:27;;;;;;;1.65;0.70;;;;;;;;;;2064759;28;20027;-87
2022/09/01 06:23:47;;;;;;;1.50;0.57;;;;;;;;;;2061136;28;20157;-88
2022/09/01 06:25:07;;;;;;;0.60;0.60;;;;;;;;;;2066489;28;20034;-88
2022/09/01 06:26:30;;;;;;;2.30;0.90;;;;;;;;;;2061126;28;20059;-88
2022/09/01 06:27:51;;;;;;;0.82;0.50;;;;;;;;;;2055689;28;20027;-88
2022/09/01 06:29:14;;;;;;;0.88;0.60;;;;;;;;;;2064560;28;20027;-88
2022/09/01 06:30:35;;;;;;;1.77;1.17;;;;;;;;;;2060996;28;20057;-88
2022/09/01 06:31:56;;;;;;;1.48;0.82;;;;;;;;;;2064451;28;20109;-86
2022/09/01 06:33:16;;;;;;;2.63;0.70;;;;;;;;;;2069262;28;20038;-86
2022/09/01 06:34:35;;;;;;;1.75;0.90;;;;;;;;;;2064129;28;20149;-85
2022/09/01 06:35:54;;;;;;;3.70;0.90;;;;;;;;;;2064824;28;20456;-85
2022/09/01 06:37:14;;;;;;;2.45;0.50;;;;;;;;;;2069978;28;20094;-86
2022/09/01 06:38:34;;;;;;;2.63;0.57;;;;;;;;;;2067722;28;20030;-87
2022/09/01 06:39:54;;;;;;;3.60;1.20;;;;;;;;;;2063400;28;20061;-85
2022/09/01 06:41:13;;;;;;;2.90;0.73;;;;;;;;;;2059037;28;20436;-84
2022/09/01 06:42:34;;;;;;;4.35;1.10;;;;;;;;;;2060846;28;20035;-83
2022/09/01 06:43:53;;;;;;;2.35;1.33;;;;;;;;;;2066610;28;20031;-85
2022/09/01 06:45:13;;;;;;;3.22;2.92;;;;;;;;;;2062359;28;20046;-84
2022/09/01 06:46:33;;;;;;;3.10;1.40;;;;;;;;;;2058882;28;20117;-85
2022/09/01 06:47:52;;;;;;;1.73;1.10;;;;;;;;;;2063396;28;20039;-86
2022/09/01 06:49:11;;;;;;;1.35;0.80;;;;;;;;;;2060386;28;20030;-85
2022/09/01 06:50:30;;;;;;;3.30;0.57;;;;;;;;;;2066454;28;20023;-84
2022/09/01 06:51:51;;;;;;;2.22;0.60;;;;;;;;;;2061039;28;20050;-83
2022/09/01 06:53:12;;;;;;;1.10;0.60;;;;;;;;;;2070555;28;20098;-83
2022/09/01 06:54:34;;;;;;;3.95;0.60;;;;;;;;;;2063041;28;20031;-84
2022/09/01 06:55:55;;;;;;;4.70;1.10;;;;;;;;;;2062256;28;20022;-83
2022/09/01 06:57:14;;;;;;;4.70;0.70;;;;;;;;;;2066677;28;20511;-83
2022/09/01 06:58:33;;;;;;;1.55;0.50;;;;;;;;;;2060521;28;20042;-82
2022/09/01 06:59:52;;;;;;;1.13;0.50;;;;;;;;;;2058824;28;20531;-83
2022/09/01 07:01:14;;;;;;;2.72;0.70;;;;;;;;;;2059059;28;20060;-82
2022/09/01 07:02:33;;;;;;;0.98;0.55;;;;;;;;;;2060351;28;20472;-82
2022/09/01 07:03:53;;;;;;;5.00;0.88;;;;;;;;;;2060838;28;20134;-82
2022/09/01 07:05:18;;;;;;;1.45;1.35;;;;;;;;;;2062673;28;20034;-82
2022/09/01 07:06:39;;;;;;;1.33;0.60;;;;;;;;;;2065876;28;20057;-83
2022/09/01 07:07:58;;;;;;;2.38;0.80;;;;;;;;;;2071519;28;20108;-82
2022/09/01 07:09:17;;;;;;;3.38;0.63;;;;;;;;;;2069908;28;20038;-83
2022/09/01 07:10:43;;;;;;;2.28;0.50;;;;;;;;;;2069045;28;20030;-82
2022/09/01 07:12:02;;;;;;;4.32;0.60;;;;;;;;;;2068249;28;20026;-82
2022/09/01 07:13:22;;;;;;;1.23;0.50;;;;;;;;;;2060345;28;20511;-82
2022/09/01 07:14:41;;;;;;;1.25;0.40;;;;;;;;;;2057708;28;20037;-82
2022/09/01 07:16:01;;;;;;;1.60;0.57;;;;;;;;;;2059851;28;20022;-82
2022/09/01 07:17:20;;;;;;;1.77;0.60;;;;;;;;;;2065830;28;20034;-82
2022/09/01 07:18:39;;;;;;;0.63;0.43;;;;;;;;;;2068968;28;20436;-82
2022/09/01 07:19:58;;;;;;;1.58;0.40;;;;;;;;;;2068319;28;20030;-82
2022/09/01 07:21:18;;;;;;;1.77;0.47;;;;;;;;;;2071217;28;20030;-81
2022/09/01 07:22:37;;;;;;;0.40;0.40;;;;;;;;;;2062792;28;20046;-81
2022/09/01 07:23:58;;;;;;;1.98;0.82;;;;;;;;;;2062040;28;20109;-81
2022/09/01 07:25:19;;;;;;;3.00;0.40;;;;;;;;;;2061632;28;20489;-82
2022/09/01 07:26:39;;;;;;;0.52;0.40;;;;;;;;;;2068860;28;20038;-82
2022/09/01 07:27:58;;;;;;;0.60;0.60;;;;;;;;;;2070746;28;20057;-82
2022/09/01 07:29:18;;;;;;;1.63;0.22;;;;;;;;;;2072625;28;20030;-82
2022/09/01 07:30:44;;;;;;;3.58;0.50;;;;;;;;;;2068685;28;20027;-82
2022/09/01 07:32:03;;;;;;;0.95;0.30;;;;;;;;;;2069438;28;20050;-82
2022/09/01 07:33:23;;;;;;;2.83;0.60;;;;;;;;;;2060193;28;20030;-81
2022/09/01 07:34:43;;;;;;;0.77;0.35;;;;;;;;;;2067443;28;20027;-81
2022/09/01 07:36:07;;;;;;;0.55;0.35;;;;;;;;;;2063294;28;20113;-82
2022/09/01 07:37:26;;;;;;;0.40;0.30;;;;;;;;;;2066292;28;20034;-81
2022/09/01 07:38:52;;;;;;;3.15;0.50;;;;;;;;;;2062081;28;20031;-81
2022/09/01 07:40:18;;;;;;;2.45;0.40;;;;;;;;;;2068934;28;20061;-81
2022/09/01 07:41:40;;;;;;;0.28;0.28;;;;;;;;;;2063348;28;20038;-82
2022/09/01 07:42:59;;;;;;;2.90;0.47;;;;;;;;;;2066203;28;20495;-82
2022/09/01 07:44:19;;;;;;;4.53;0.50;;;;;;;;;;2062933;28;20323;-81
2022/09/01 07:45:42;;;;;;;4.70;0.55;;;;;;;;;;2064593;28;20506;-81
2022/09/01 07:47:03;;;;;;;0.55;0.35;;;;;;;;;;2061139;28;20440;-81
2022/09/01 07:48:23;;;;;;;0.80;0.40;;;;;;;;;;2058128;28;20536;-82
2022/09/01 07:49:42;;;;;;;0.98;0.25;;;;;;;;;;2061795;28;20400;-81
2022/09/01 07:51:02;;;;;;;0.90;0.30;;;;;;;;;;2065831;28;20089;-82
2022/09/01 07:52:21;;;;;;;0.60;0.38;;;;;;;;;;2062388;28;20031;-81
2022/09/01 07:53:40;;;;;;;1.10;0.35;;;;;;;;;;2065892;28;20026;-81
2022/09/01 07:54:59;;;;;;;2.03;0.40;;;;;;;;;;2062449;28;20031;-81
2022/09/01 07:56:19;;;;;;;1.33;0.40;;;;;;;;;;2062209;28;20034;-81
2022/09/01 07:57:42;;;;;;;1.33;0.77;;;;;;;;;;2066514;28;20042;-81
2022/09/01 07:59:01;;;;;;;0.63;0.40;;;;;;;;;;2066699;28;20026;-81
2022/09/01 08:00:20;;;;;;;1.05;0.47;;;;;;;;;;2062895;28;20042;-81
2022/09/01 08:01:41;;;;;;;3.13;0.95;;;;;;;;;;2064424;28;20034;-81
2022/09/01 08:03:00;;;;;;;0.50;0.30;;;;;;;;;;2069368;28;20034;-81
2022/09/01 08:04:21;;;;;;;0.85;0.30;;;;;;;;;;2063358;28;20138;-81
2022/09/01 08:05:42;;;;;;;1.27;0.52;;;;;;;;;;2060806;28;20031;-81
2022/09/01 08:07:01;;;;;;;3.28;0.52;;;;;;;;;;2066155;28;20025;-81
2022/09/01 08:08:20;;;;;;;3.60;0.70;;;;;;;;;;2069695;28;20034;-82
2022/09/01 08:09:39;;;;;;;0.47;0.47;;;;;;;;;;2062498;28;20497;-80
2022/09/01 08:10:58;;;;;;;0.82;0.43;;;;;;;;;;2061925;28;20042;-81